createdAt,value
2019-01-24T00:00:40.332Z,8.70
2019-01-24T00:01:40.331Z,8.70
2019-01-24T00:02:40.295Z,9.60
2019-01-24T00:03:40.295Z,9.80
2019-01-24T00:04:40.280Z,9.50
2019-01-24T00:05:40.261Z,9.30
2019-01-24T00:06:40.283Z,9.00
2019-01-24T00:07:40.240Z,11.00
2019-01-24T00:08:40.236Z,9.00
2019-01-24T00:09:40.223Z,9.50
2019-01-24T00:10:40.227Z,9.30
2019-01-24T00:11:40.221Z,10.00
2019-01-24T00:12:40.184Z,8.90
2019-01-24T00:13:40.182Z,9.30
2019-01-24T00:14:40.158Z,9.50
2019-01-24T00:15:40.148Z,9.20
2019-01-24T00:16:40.154Z,9.10
2019-01-24T00:17:40.134Z,9.00
2019-01-24T00:18:40.112Z,8.60
2019-01-24T00:19:40.102Z,10.00
2019-01-24T00:20:40.095Z,9.50
2019-01-24T00:21:40.103Z,9.50
2019-01-24T00:22:40.076Z,9.00
2019-01-24T00:23:40.056Z,8.70
2019-01-24T00:24:40.059Z,10.20
2019-01-24T00:25:40.033Z,9.50
2019-01-24T00:26:40.072Z,8.50
2019-01-24T00:27:40.011Z,9.00
2019-01-24T00:28:40.006Z,8.80
2019-01-24T00:29:39.987Z,8.60
2019-01-24T00:30:39.997Z,9.50
2019-01-24T00:31:39.966Z,8.40
2019-01-24T00:32:39.974Z,8.40
2019-01-24T00:33:39.958Z,8.70
2019-01-24T00:34:39.931Z,8.90
2019-01-24T00:35:39.935Z,9.10
2019-01-24T00:36:39.905Z,8.80
2019-01-24T00:37:39.912Z,8.80
2019-01-24T00:38:39.891Z,8.90
2019-01-24T00:39:39.872Z,9.20
2019-01-24T00:40:39.878Z,8.60
2019-01-24T00:41:39.855Z,9.40
2019-01-24T00:42:39.853Z,8.50
2019-01-24T00:43:39.827Z,9.40
2019-01-24T00:44:39.814Z,8.90
2019-01-24T00:45:39.805Z,8.60
2019-01-24T00:46:39.804Z,8.20
2019-01-24T00:47:39.799Z,8.90
2019-01-24T00:48:39.776Z,9.00
2019-01-24T00:49:39.757Z,8.20
2019-01-24T00:50:39.747Z,9.10
2019-01-24T00:51:39.735Z,8.90
2019-01-24T00:52:39.760Z,8.00
2019-01-24T00:53:39.719Z,8.30
2019-01-24T00:54:39.703Z,8.90
2019-01-24T00:55:39.696Z,9.10
2019-01-24T00:56:39.677Z,9.10
2019-01-24T00:57:39.690Z,9.20
2019-01-24T00:58:39.662Z,9.50
2019-01-24T00:59:39.655Z,9.10
2019-01-24T01:00:39.640Z,8.90
2019-01-24T01:01:39.621Z,8.50
2019-01-24T01:02:39.609Z,8.80
2019-01-24T01:03:39.621Z,8.10
2019-01-24T01:04:39.586Z,8.50
2019-01-24T01:05:39.576Z,9.00
2019-01-24T01:06:39.574Z,9.20
2019-01-24T01:07:39.556Z,8.90
2019-01-24T01:08:39.559Z,8.60
2019-01-24T01:09:39.551Z,9.00
2019-01-24T01:10:39.519Z,8.80
2019-01-24T01:11:39.515Z,9.20
2019-01-24T01:12:39.506Z,9.00
2019-01-24T01:13:39.500Z,9.20
2019-01-24T01:14:39.473Z,8.80
2019-01-24T01:15:39.468Z,9.30
2019-01-24T01:16:39.450Z,8.50
2019-01-24T01:17:39.438Z,8.20
2019-01-24T01:18:39.477Z,8.90
2019-01-24T01:19:39.422Z,8.00
2019-01-24T01:20:39.406Z,8.50
2019-01-24T01:21:39.397Z,9.10
2019-01-24T01:22:39.388Z,8.10
2019-01-24T01:23:39.375Z,9.00
2019-01-24T01:24:39.375Z,8.50
2019-01-24T01:25:39.357Z,8.50
2019-01-24T01:26:39.338Z,8.80
2019-01-24T01:27:39.334Z,8.90
2019-01-24T01:28:39.313Z,8.80
2019-01-24T01:29:39.319Z,8.40
2019-01-24T01:30:39.292Z,8.10
2019-01-24T01:31:39.285Z,7.90
2019-01-24T01:32:39.269Z,8.40
2019-01-24T01:33:39.259Z,8.90
2019-01-24T01:34:39.272Z,8.30
2019-01-24T01:35:39.235Z,8.70
2019-01-24T01:36:39.227Z,9.60
2019-01-24T01:37:39.209Z,8.70
2019-01-24T01:38:39.204Z,8.10
2019-01-24T01:39:39.214Z,7.90
2019-01-24T01:40:39.192Z,8.40
2019-01-24T01:41:39.166Z,7.80
2019-01-24T01:42:39.151Z,8.20
2019-01-24T01:43:39.146Z,8.30
2019-01-24T01:44:39.159Z,8.40
2019-01-24T01:45:39.126Z,8.40
2019-01-24T01:46:39.121Z,8.70
2019-01-24T01:47:39.095Z,8.00
2019-01-24T01:48:39.087Z,8.30
2019-01-24T01:49:39.072Z,8.00
2019-01-24T01:50:39.082Z,8.80
2019-01-24T01:51:39.050Z,7.90
2019-01-24T01:52:39.056Z,8.50
2019-01-24T01:53:39.025Z,8.30
2019-01-24T01:54:39.020Z,8.30
2019-01-24T01:55:39.028Z,7.80
2019-01-24T01:56:38.992Z,8.70
2019-01-24T01:57:38.980Z,7.60
2019-01-24T01:58:38.990Z,8.00
2019-01-24T01:59:38.959Z,7.70
2019-01-24T02:00:38.963Z,8.30
2019-01-24T02:01:38.939Z,8.00
2019-01-24T02:02:38.923Z,8.10
2019-01-24T02:03:38.913Z,7.30
2019-01-24T02:04:42.922Z,7.90
2019-01-24T02:05:38.911Z,7.70
2019-01-24T02:06:38.889Z,8.70
2019-01-24T02:07:38.878Z,8.20
2019-01-24T02:08:38.854Z,8.10
2019-01-24T02:09:38.845Z,8.10
2019-01-24T02:10:38.858Z,8.00
2019-01-24T02:11:38.821Z,8.20
2019-01-24T02:12:38.810Z,8.40
2019-01-24T02:13:38.796Z,8.80
2019-01-24T02:14:38.786Z,8.40
2019-01-24T02:15:38.804Z,8.80
2019-01-24T02:16:38.769Z,8.30
2019-01-24T02:17:38.755Z,8.50
2019-01-24T02:18:38.753Z,8.30
2019-01-24T02:19:38.740Z,8.20
2019-01-24T02:20:38.748Z,8.30
2019-01-24T02:21:38.715Z,8.60
2019-01-24T02:22:38.694Z,8.50
2019-01-24T02:23:38.701Z,8.80
2019-01-24T02:24:38.678Z,9.00
2019-01-24T02:25:38.660Z,9.20
2019-01-24T02:26:38.673Z,9.10
2019-01-24T02:27:38.660Z,8.70
2019-01-24T02:28:38.630Z,9.10
2019-01-24T02:29:38.615Z,8.40
2019-01-24T02:30:38.615Z,8.60
2019-01-24T02:31:38.612Z,8.50
2019-01-24T02:32:38.589Z,9.10
2019-01-24T02:33:38.578Z,8.30
2019-01-24T02:34:38.573Z,8.80
2019-01-24T02:35:38.547Z,9.10
2019-01-24T02:36:38.566Z,8.50
2019-01-24T02:37:38.532Z,7.80
2019-01-24T02:38:38.582Z,8.30
2019-01-24T02:39:38.505Z,9.30
2019-01-24T02:40:38.493Z,8.90
2019-01-24T02:41:38.497Z,8.00
2019-01-24T02:42:38.483Z,8.10
2019-01-24T02:43:38.466Z,8.00
2019-01-24T02:44:38.456Z,8.50
2019-01-24T02:45:38.436Z,8.40
2019-01-24T02:46:38.444Z,8.10
2019-01-24T02:47:38.413Z,8.50
2019-01-24T02:48:38.415Z,8.50
2019-01-24T02:49:38.396Z,8.50
2019-01-24T02:50:38.385Z,8.90
2019-01-24T02:51:38.386Z,8.10
2019-01-24T02:52:38.357Z,8.00
2019-01-24T02:53:38.352Z,8.60
2019-01-24T02:54:38.335Z,7.60
2019-01-24T02:55:38.337Z,7.70
2019-01-24T02:56:38.331Z,7.90
2019-01-24T02:57:38.299Z,8.10
2019-01-24T02:58:38.298Z,8.10
2019-01-24T02:59:38.278Z,7.40
2019-01-24T03:00:38.267Z,7.90
2019-01-24T03:01:38.293Z,8.30
2019-01-24T03:02:38.264Z,7.80
2019-01-24T03:03:38.240Z,8.20
2019-01-24T03:04:38.221Z,7.90
2019-01-24T03:05:38.217Z,7.70
2019-01-24T03:06:38.216Z,8.30
2019-01-24T03:07:38.202Z,8.00
2019-01-24T03:08:38.174Z,8.10
2019-01-24T03:09:38.170Z,8.00
2019-01-24T03:10:38.173Z,9.60
2019-01-24T03:11:38.143Z,8.20
2019-01-24T03:12:38.160Z,7.90
2019-01-24T03:13:38.125Z,8.00
2019-01-24T03:14:38.108Z,8.10
2019-01-24T03:15:38.095Z,8.00
2019-01-24T03:16:38.086Z,8.00
2019-01-24T03:17:38.102Z,8.50
2019-01-24T03:18:38.069Z,7.70
2019-01-24T03:19:38.063Z,7.90
2019-01-24T03:20:38.041Z,8.10
2019-01-24T03:21:38.025Z,8.20
2019-01-24T03:22:38.032Z,8.20
2019-01-24T03:23:38.004Z,7.70
2019-01-24T03:24:37.995Z,7.90
2019-01-24T03:25:37.990Z,8.20
2019-01-24T03:26:37.969Z,7.80
2019-01-24T03:27:37.993Z,7.70
2019-01-24T03:28:37.955Z,8.10
2019-01-24T03:29:37.937Z,7.70
2019-01-24T03:30:37.934Z,8.70
2019-01-24T03:31:37.913Z,8.80
2019-01-24T03:32:37.918Z,8.10
2019-01-24T03:33:37.890Z,7.60
2019-01-24T03:34:37.887Z,7.80
2019-01-24T03:35:37.878Z,7.40
2019-01-24T03:36:37.856Z,7.70
2019-01-24T03:37:37.861Z,7.60
2019-01-24T03:38:37.837Z,7.90
2019-01-24T03:39:37.834Z,7.90
2019-01-24T03:40:37.811Z,7.80
2019-01-24T03:41:37.799Z,7.90
2019-01-24T03:42:37.811Z,7.90
2019-01-24T03:43:37.775Z,7.60
2019-01-24T03:44:37.773Z,8.20
2019-01-24T03:45:37.757Z,8.10
2019-01-24T03:46:37.752Z,7.90
2019-01-24T03:47:37.750Z,7.70
2019-01-24T03:48:37.725Z,7.50
2019-01-24T03:49:37.705Z,8.00
2019-01-24T03:50:37.703Z,8.20
2019-01-24T03:51:37.701Z,7.70
2019-01-24T03:52:37.696Z,7.70
2019-01-24T03:53:37.663Z,7.20
2019-01-24T03:54:37.650Z,8.40
2019-01-24T03:55:37.641Z,8.00
2019-01-24T03:56:37.629Z,8.30
2019-01-24T03:57:37.654Z,7.70
2019-01-24T03:58:37.620Z,7.90
2019-01-24T03:59:37.599Z,7.80
2019-01-24T04:00:37.588Z,7.80
2019-01-24T04:01:37.581Z,7.60
2019-01-24T04:02:37.559Z,7.80
2019-01-24T04:03:37.565Z,7.70
2019-01-24T04:04:37.547Z,8.20
2019-01-24T04:05:37.525Z,7.50
2019-01-24T04:06:37.514Z,7.00
2019-01-24T04:07:37.511Z,7.80
2019-01-24T04:08:37.508Z,7.60
2019-01-24T04:09:37.481Z,7.60
2019-01-24T04:10:37.479Z,8.00
2019-01-24T04:11:37.456Z,8.00
2019-01-24T04:12:37.451Z,7.50
2019-01-24T04:13:37.449Z,7.70
2019-01-24T04:14:37.431Z,8.50
2019-01-24T04:15:37.420Z,7.60
2019-01-24T04:16:37.415Z,8.50
2019-01-24T04:17:37.390Z,7.50
2019-01-24T04:18:37.405Z,7.40
2019-01-24T04:19:37.369Z,7.60
2019-01-24T04:20:37.361Z,7.60
2019-01-24T04:21:37.344Z,7.90
2019-01-24T04:22:37.332Z,7.60
2019-01-24T04:23:37.347Z,7.60
2019-01-24T04:24:37.309Z,7.60
2019-01-24T04:25:37.314Z,7.70
2019-01-24T04:26:37.296Z,8.10
2019-01-24T04:27:37.275Z,7.40
2019-01-24T04:28:37.280Z,7.50
2019-01-24T04:29:37.253Z,7.90
2019-01-24T04:30:37.251Z,9.20
2019-01-24T04:31:37.237Z,7.80
2019-01-24T04:32:37.219Z,8.40
2019-01-24T04:33:37.229Z,7.70
2019-01-24T04:34:37.197Z,7.90
2019-01-24T04:35:37.186Z,8.20
2019-01-24T04:36:37.186Z,7.20
2019-01-24T04:37:37.162Z,8.30
2019-01-24T04:38:37.169Z,10.50
2019-01-24T04:39:37.144Z,9.20
2019-01-24T04:40:37.126Z,10.20
2019-01-24T04:41:37.116Z,9.70
2019-01-24T04:42:37.112Z,10.00
2019-01-24T04:43:37.114Z,11.60
2019-01-24T04:44:37.082Z,10.10
2019-01-24T04:45:37.071Z,9.40
2019-01-24T04:46:37.060Z,9.90
2019-01-24T04:47:37.059Z,9.70
2019-01-24T04:48:37.065Z,7.90
2019-01-24T04:49:37.035Z,9.10
2019-01-24T04:50:37.019Z,10.20
2019-01-24T04:51:37.002Z,7.40
2019-01-24T04:52:36.991Z,7.80
2019-01-24T04:53:37.010Z,7.80
2019-01-24T04:54:36.978Z,9.80
2019-01-24T04:55:36.956Z,8.50
2019-01-24T04:56:36.947Z,8.40
2019-01-24T04:57:36.935Z,8.10
2019-01-24T04:58:36.923Z,8.40
2019-01-24T04:59:36.928Z,8.60
2019-01-24T05:00:36.905Z,10.20
2019-01-24T05:01:36.896Z,8.30
2019-01-24T05:02:36.878Z,7.20
2019-01-24T05:03:36.866Z,10.10
2019-01-24T05:04:36.867Z,8.60
2019-01-24T05:05:36.842Z,9.40
2019-01-24T05:06:36.829Z,8.90
2019-01-24T05:07:36.831Z,6.80
2019-01-24T05:08:36.814Z,7.00
2019-01-24T05:09:36.820Z,8.50
2019-01-24T05:10:36.788Z,7.90
2019-01-24T05:11:36.774Z,8.90
2019-01-24T05:12:36.762Z,9.00
2019-01-24T05:13:36.760Z,7.20
2019-01-24T05:14:36.754Z,8.00
2019-01-24T05:15:36.748Z,8.80
2019-01-24T05:16:36.719Z,8.40
2019-01-24T05:17:36.706Z,7.50
2019-01-24T05:18:36.694Z,7.80
2019-01-24T05:19:36.708Z,8.00
2019-01-24T05:20:36.675Z,7.60
2019-01-24T05:21:36.660Z,8.10
2019-01-24T05:22:36.649Z,7.70
2019-01-24T05:23:36.638Z,7.40
2019-01-24T05:24:36.645Z,7.40
2019-01-24T05:25:36.619Z,7.60
2019-01-24T05:26:36.611Z,7.00
2019-01-24T05:27:36.591Z,7.50
2019-01-24T05:28:36.585Z,9.10
2019-01-24T05:29:36.588Z,11.10
2019-01-24T05:30:36.557Z,12.20
2019-01-24T05:31:36.546Z,12.60
2019-01-24T05:32:36.546Z,12.60
2019-01-24T05:33:36.531Z,13.90
2019-01-24T05:34:36.537Z,13.30
2019-01-24T05:35:36.518Z,14.50
2019-01-24T05:36:36.496Z,12.60
2019-01-24T05:37:36.478Z,14.20
2019-01-24T05:38:36.475Z,13.90
2019-01-24T05:39:36.472Z,12.00
2019-01-24T05:40:36.452Z,13.50
2019-01-24T05:41:36.437Z,12.50
2019-01-24T05:42:36.419Z,11.70
2019-01-24T05:43:36.414Z,10.70
2019-01-24T05:44:36.425Z,11.30
2019-01-24T05:45:36.387Z,10.50
2019-01-24T05:46:36.381Z,10.20
2019-01-24T05:47:36.367Z,11.40
2019-01-24T05:48:36.363Z,10.80
2019-01-24T05:49:37.011Z,10.30
2019-01-24T05:50:36.326Z,8.50
2019-01-24T05:51:36.326Z,9.30
2019-01-24T05:52:36.310Z,11.40
2019-01-24T05:53:36.294Z,8.90
2019-01-24T05:54:36.289Z,9.80
2019-01-24T05:55:36.293Z,11.70
2019-01-24T05:56:36.267Z,11.40
2019-01-24T05:57:36.255Z,11.20
2019-01-24T05:58:36.254Z,12.60
2019-01-24T05:59:36.228Z,11.90
2019-01-24T06:00:36.237Z,12.30
2019-01-24T06:01:36.202Z,12.90
2019-01-24T06:02:36.201Z,13.70
2019-01-24T06:03:36.184Z,12.40
2019-01-24T06:04:36.187Z,13.60
2019-01-24T06:05:41.683Z,13.60
2019-01-24T06:06:37.149Z,13.90
2019-01-24T06:07:36.138Z,13.20
2019-01-24T06:08:36.132Z,12.30
2019-01-24T06:09:36.115Z,11.60
2019-01-24T06:10:36.139Z,13.10
2019-01-24T06:11:36.098Z,12.10
2019-01-24T06:12:36.089Z,12.90
2019-01-24T06:13:36.080Z,12.30
2019-01-24T06:14:36.060Z,11.00
2019-01-24T06:15:36.081Z,11.50
2019-01-24T06:16:36.053Z,10.60
2019-01-24T06:17:36.028Z,10.80
2019-01-24T06:18:36.016Z,10.10
2019-01-24T06:19:36.008Z,10.50
2019-01-24T06:20:36.014Z,10.80
2019-01-24T06:21:35.983Z,10.80
2019-01-24T06:22:35.983Z,10.20
2019-01-24T06:23:35.968Z,10.80
2019-01-24T06:24:35.950Z,11.40
2019-01-24T06:25:35.956Z,10.40
2019-01-24T06:26:35.927Z,9.80
2019-01-24T06:27:35.922Z,9.90
2019-01-24T06:28:35.911Z,9.80
2019-01-24T06:29:35.900Z,10.20
2019-01-24T06:30:35.899Z,10.40
2019-01-24T06:31:35.874Z,10.70
2019-01-24T06:32:35.863Z,10.20
2019-01-24T06:33:35.857Z,9.60
2019-01-24T06:34:35.849Z,9.00
2019-01-24T06:35:35.843Z,9.50
2019-01-24T06:36:35.817Z,10.40
2019-01-24T06:37:35.809Z,8.50
2019-01-24T06:38:35.793Z,10.40
2019-01-24T06:39:35.783Z,12.10
2019-01-24T06:40:35.808Z,9.50
2019-01-24T06:41:35.759Z,9.30
2019-01-24T06:42:35.751Z,8.60
2019-01-24T06:43:35.742Z,8.70
2019-01-24T06:44:35.725Z,8.70
2019-01-24T06:45:35.732Z,9.70
2019-01-24T06:46:35.727Z,8.60
2019-01-24T06:47:35.692Z,9.20
2019-01-24T06:48:35.687Z,8.20
2019-01-24T06:49:35.674Z,8.40
2019-01-24T06:50:35.659Z,9.20
2019-01-24T06:51:35.662Z,8.40
2019-01-24T06:52:35.641Z,9.40
2019-01-24T06:53:35.622Z,7.90
2019-01-24T06:54:35.614Z,7.70
2019-01-24T06:55:35.599Z,9.20
2019-01-24T06:56:35.609Z,8.40
2019-01-24T06:57:35.577Z,8.10
2019-01-24T06:58:35.573Z,9.10
2019-01-24T06:59:35.555Z,8.40
2019-01-24T07:00:35.549Z,7.70
2019-01-24T07:01:35.555Z,8.00
2019-01-24T07:02:35.528Z,7.20
2019-01-24T07:03:35.507Z,7.80
2019-01-24T07:04:35.513Z,6.60
2019-01-24T07:05:35.487Z,8.10
2019-01-24T07:06:35.490Z,7.00
2019-01-24T07:07:35.470Z,8.50
2019-01-24T07:08:35.458Z,7.50
2019-01-24T07:09:35.439Z,6.70
2019-01-24T07:10:35.446Z,6.80
2019-01-24T07:11:35.442Z,6.50
2019-01-24T07:12:35.406Z,7.20
2019-01-24T07:13:35.401Z,6.70
2019-01-24T07:14:35.389Z,6.10
2019-01-24T07:15:35.371Z,7.30
2019-01-24T07:16:35.395Z,7.00
2019-01-24T07:17:35.356Z,7.10
2019-01-24T07:18:35.339Z,7.00
2019-01-24T07:19:35.334Z,6.60
2019-01-24T07:20:35.317Z,6.70
2019-01-24T07:21:35.327Z,7.10
2019-01-24T07:22:35.303Z,7.10
2019-01-24T07:23:35.283Z,6.80
2019-01-24T07:24:35.272Z,6.30
2019-01-24T07:25:35.264Z,6.30
2019-01-24T07:26:35.263Z,6.40
2019-01-24T07:27:35.237Z,7.00
2019-01-24T07:28:35.235Z,6.50
2019-01-24T07:29:35.215Z,6.20
2019-01-24T07:30:35.216Z,6.50
2019-01-24T07:31:35.213Z,6.20
2019-01-24T07:32:35.180Z,6.00
2019-01-24T07:33:35.170Z,6.60
2019-01-24T07:34:35.171Z,5.60
2019-01-24T07:35:35.144Z,6.20
2019-01-24T07:36:35.156Z,6.30
2019-01-24T07:37:35.123Z,5.90
2019-01-24T07:38:35.117Z,5.90
2019-01-24T07:39:35.113Z,5.80
2019-01-24T07:40:35.096Z,6.10
2019-01-24T07:41:35.111Z,5.30
2019-01-24T07:42:35.065Z,6.10
2019-01-24T07:43:35.054Z,5.90
2019-01-24T07:44:35.057Z,5.60
2019-01-24T07:45:35.042Z,5.70
2019-01-24T07:46:35.022Z,6.00
2019-01-24T07:47:35.025Z,6.60
2019-01-24T07:48:35.003Z,6.20
2019-01-24T07:49:34.986Z,6.30
2019-01-24T07:50:34.981Z,6.20
2019-01-24T07:51:34.974Z,6.30
2019-01-24T07:52:34.970Z,6.50
2019-01-24T07:53:34.940Z,6.70
2019-01-24T07:54:34.928Z,6.30
2019-01-24T07:55:34.922Z,6.00
2019-01-24T07:56:34.905Z,6.10
2019-01-24T07:57:34.930Z,6.20
2019-01-24T07:58:34.891Z,7.30
2019-01-24T07:59:34.872Z,6.50
2019-01-24T08:00:34.868Z,5.80
2019-01-24T08:01:34.856Z,7.10
2019-01-24T08:02:34.854Z,7.30
2019-01-24T08:03:34.910Z,7.40
2019-01-24T08:04:34.815Z,7.40
2019-01-24T08:05:34.803Z,7.10
2019-01-24T08:06:34.796Z,7.50
2019-01-24T08:07:34.806Z,9.10
2019-01-24T08:08:34.769Z,9.00
2019-01-24T08:09:34.767Z,7.90
2019-01-24T08:10:34.757Z,7.40
2019-01-24T08:11:34.735Z,9.10
2019-01-24T08:12:34.748Z,8.30
2019-01-24T08:13:34.720Z,7.50
2019-01-24T08:14:34.701Z,7.90
2019-01-24T08:15:34.690Z,7.90
2019-01-24T08:16:34.686Z,8.10
2019-01-24T08:17:34.691Z,8.50
2019-01-24T08:18:34.656Z,8.20
2019-01-24T08:19:34.644Z,8.30
2019-01-24T08:20:34.632Z,9.10
2019-01-24T08:21:34.627Z,7.10
2019-01-24T08:22:34.635Z,7.60
2019-01-24T08:23:34.603Z,9.00
2019-01-24T08:24:34.592Z,8.70
2019-01-24T08:25:34.576Z,7.90
2019-01-24T08:26:34.570Z,8.40
2019-01-24T08:27:34.566Z,8.30
2019-01-24T08:28:34.551Z,8.60
2019-01-24T08:29:34.532Z,8.80
2019-01-24T08:30:34.517Z,6.90
2019-01-24T08:31:34.508Z,9.10
2019-01-24T08:32:34.511Z,8.20
2019-01-24T08:33:34.485Z,9.90
2019-01-24T08:34:34.483Z,7.60
2019-01-24T08:35:34.462Z,7.10
2019-01-24T08:36:34.455Z,9.10
2019-01-24T08:37:34.472Z,6.60
2019-01-24T08:38:34.472Z,7.10
2019-01-24T08:39:34.414Z,6.20
2019-01-24T08:40:34.451Z,6.70
2019-01-24T08:41:34.391Z,7.10
2019-01-24T08:42:34.386Z,6.40
2019-01-24T08:43:34.390Z,7.10
2019-01-24T08:44:34.360Z,6.40
2019-01-24T08:45:34.354Z,7.50
2019-01-24T08:46:34.354Z,7.50
2019-01-24T08:47:34.324Z,6.80
2019-01-24T08:48:34.326Z,8.20
2019-01-24T08:49:34.306Z,6.80
2019-01-24T08:50:34.289Z,6.70
2019-01-24T08:51:34.275Z,6.70
2019-01-24T08:52:34.284Z,6.90
2019-01-24T08:53:34.277Z,7.10
2019-01-24T08:54:34.249Z,5.90
2019-01-24T08:55:34.232Z,8.60
2019-01-24T08:56:34.219Z,6.20
2019-01-24T08:57:34.216Z,6.20
2019-01-24T08:58:34.227Z,8.40
2019-01-24T08:59:34.188Z,7.40
2019-01-24T09:00:34.182Z,7.50
2019-01-24T09:01:34.172Z,6.20
2019-01-24T09:02:34.151Z,6.70
2019-01-24T09:03:34.158Z,6.40
2019-01-24T09:04:34.147Z,5.70
2019-01-24T09:05:34.125Z,6.30
2019-01-24T09:06:34.105Z,6.30
2019-01-24T09:07:34.110Z,5.90
2019-01-24T09:08:34.097Z,6.30
2019-01-24T09:09:34.078Z,6.50
2019-01-24T09:10:34.071Z,6.90
2019-01-24T09:11:34.048Z,5.90
2019-01-24T09:12:34.045Z,6.90
2019-01-24T09:13:34.043Z,5.30
2019-01-24T09:14:34.022Z,6.20
2019-01-24T09:15:34.010Z,6.70
2019-01-24T09:16:33.994Z,7.60
2019-01-24T09:17:33.988Z,6.60
2019-01-24T09:18:33.988Z,5.70
2019-01-24T09:19:33.960Z,7.80
2019-01-24T09:20:33.955Z,7.10
2019-01-24T09:21:33.946Z,5.40
2019-01-24T09:22:33.926Z,5.80
2019-01-24T09:23:33.938Z,6.00
2019-01-24T09:24:33.904Z,7.10
2019-01-24T09:25:33.892Z,5.60
2019-01-24T09:26:33.880Z,8.00
2019-01-24T09:27:33.884Z,4.90
2019-01-24T09:28:33.873Z,6.10
2019-01-24T09:29:33.853Z,5.20
2019-01-24T09:30:33.840Z,6.00
2019-01-24T09:31:33.825Z,5.20
2019-01-24T09:32:33.819Z,5.50
2019-01-24T09:33:33.844Z,5.80
2019-01-24T09:34:33.789Z,6.20
2019-01-24T09:35:33.783Z,7.50
2019-01-24T09:36:33.769Z,5.50
2019-01-24T09:37:33.757Z,6.00
2019-01-24T09:38:33.746Z,6.50
2019-01-24T09:39:33.763Z,5.20
2019-01-24T09:40:33.723Z,5.60
2019-01-24T09:41:33.711Z,5.10
2019-01-24T09:42:33.707Z,5.60
2019-01-24T09:43:33.692Z,4.80
2019-01-24T09:44:33.701Z,6.20
2019-01-24T09:45:33.683Z,6.00
2019-01-24T09:46:33.657Z,5.50
2019-01-24T09:47:33.645Z,4.80
2019-01-24T09:48:33.634Z,5.50
2019-01-24T09:49:33.640Z,5.80
2019-01-24T09:50:33.613Z,5.60
2019-01-24T09:51:33.617Z,5.40
2019-01-24T09:52:33.590Z,5.30
2019-01-24T09:53:33.579Z,5.70
2019-01-24T09:54:33.587Z,5.90
2019-01-24T09:55:33.557Z,5.60
2019-01-24T09:56:33.545Z,5.40
2019-01-24T09:57:33.541Z,5.60
2019-01-24T09:58:33.523Z,4.70
2019-01-24T09:59:33.528Z,6.40
2019-01-24T10:00:33.507Z,5.60
2019-01-24T10:01:33.497Z,5.50
2019-01-24T10:02:33.479Z,4.40
2019-01-24T10:03:33.478Z,5.70
2019-01-24T10:04:33.471Z,5.80
2019-01-24T10:05:33.448Z,4.90
2019-01-24T10:06:36.416Z,4.60
2019-01-24T10:07:33.422Z,6.40
2019-01-24T10:08:33.412Z,5.00
2019-01-24T10:09:33.425Z,5.50
2019-01-24T10:10:33.388Z,5.00
2019-01-24T10:11:33.378Z,5.60
2019-01-24T10:12:33.367Z,5.60
2019-01-24T10:13:33.360Z,4.70
2019-01-24T10:14:33.359Z,4.50
2019-01-24T10:15:33.332Z,5.00
2019-01-24T10:16:33.330Z,5.40
2019-01-24T10:17:33.817Z,5.50
2019-01-24T10:18:34.287Z,4.40
2019-01-24T10:19:33.312Z,3.80
2019-01-24T10:20:33.278Z,4.60
2019-01-24T10:21:33.266Z,5.80
2019-01-24T10:22:33.263Z,5.60
2019-01-24T10:23:33.245Z,4.70
2019-01-24T10:24:33.252Z,5.30
2019-01-24T10:25:33.241Z,4.70
2019-01-24T10:26:33.210Z,4.80
2019-01-24T10:27:33.199Z,5.70
2019-01-24T10:28:33.190Z,4.80
2019-01-24T10:29:33.228Z,4.90
2019-01-24T10:30:33.176Z,6.30
2019-01-24T10:31:33.158Z,6.10
2019-01-24T10:32:33.150Z,4.70
2019-01-24T10:33:33.133Z,4.10
2019-01-24T10:34:33.123Z,5.70
2019-01-24T10:35:33.151Z,4.50
2019-01-24T10:36:33.101Z,5.20
2019-01-24T10:37:33.089Z,4.80
2019-01-24T10:38:33.078Z,4.80
2019-01-24T10:39:33.067Z,4.70
2019-01-24T10:40:33.078Z,4.30
2019-01-24T10:41:33.078Z,4.50
2019-01-24T10:42:33.035Z,4.50
2019-01-24T10:43:33.047Z,4.80
2019-01-24T10:44:33.013Z,5.30
2019-01-24T10:45:33.025Z,4.60
2019-01-24T10:46:32.991Z,5.30
2019-01-24T10:47:32.992Z,5.40
2019-01-24T10:48:32.976Z,4.20
2019-01-24T10:49:32.962Z,6.10
2019-01-24T10:50:32.970Z,5.70
2019-01-24T10:51:32.948Z,5.00
2019-01-24T10:52:32.927Z,5.60
2019-01-24T10:53:32.931Z,5.10
2019-01-24T10:54:32.908Z,5.00
2019-01-24T10:55:32.922Z,4.80
2019-01-24T10:56:32.891Z,4.90
2019-01-24T10:57:32.874Z,5.30
2019-01-24T10:58:32.865Z,5.10
2019-01-24T10:59:32.860Z,4.60
2019-01-24T11:00:32.868Z,4.30
2019-01-24T11:01:32.831Z,6.00
2019-01-24T11:02:32.822Z,5.70
2019-01-24T11:03:32.812Z,5.50
2019-01-24T11:04:32.801Z,4.60
2019-01-24T11:05:32.813Z,4.70
2019-01-24T11:06:32.816Z,5.10
2019-01-24T11:07:32.763Z,4.60
2019-01-24T11:08:32.753Z,4.40
2019-01-24T11:09:32.742Z,4.90
2019-01-24T11:10:32.747Z,4.60
2019-01-24T11:11:32.734Z,4.60
2019-01-24T11:12:32.708Z,4.50
2019-01-24T11:13:32.696Z,4.60
2019-01-24T11:14:32.707Z,4.00
2019-01-24T11:15:32.691Z,5.60
2019-01-24T11:16:32.664Z,4.90
2019-01-24T11:17:32.665Z,4.90
2019-01-24T11:18:32.642Z,5.40
2019-01-24T11:19:32.636Z,4.70
2019-01-24T11:20:32.640Z,4.40
2019-01-24T11:21:32.620Z,4.40
2019-01-24T11:22:32.603Z,4.10
2019-01-24T11:23:32.601Z,4.40
2019-01-24T11:24:32.574Z,5.80
2019-01-24T11:25:32.578Z,4.80
2019-01-24T11:26:32.561Z,4.70
2019-01-24T11:27:32.543Z,4.40
2019-01-24T11:28:32.530Z,4.50
2019-01-24T11:29:32.539Z,5.50
2019-01-24T11:30:32.546Z,4.30
2019-01-24T11:31:32.496Z,4.30
2019-01-24T11:32:32.495Z,5.00
2019-01-24T11:33:32.473Z,4.00
2019-01-24T11:34:32.465Z,4.70
2019-01-24T11:35:32.466Z,4.10
2019-01-24T11:36:32.468Z,4.70
2019-01-24T11:37:32.434Z,4.00
2019-01-24T11:38:32.418Z,4.10
2019-01-24T11:39:32.408Z,4.50
2019-01-24T11:40:32.394Z,4.80
2019-01-24T11:41:32.417Z,3.90
2019-01-24T11:42:32.389Z,4.90
2019-01-24T11:43:32.371Z,3.60
2019-01-24T11:44:32.348Z,4.90
2019-01-24T11:45:32.338Z,3.90
2019-01-24T11:46:32.341Z,4.70
2019-01-24T11:47:32.327Z,4.70
2019-01-24T11:48:32.304Z,4.30
2019-01-24T11:49:32.299Z,5.10
2019-01-24T11:50:32.287Z,4.20
2019-01-24T11:51:32.292Z,4.50
2019-01-24T11:52:32.259Z,4.00
2019-01-24T11:53:32.257Z,4.50
2019-01-24T11:54:32.238Z,4.20
2019-01-24T11:55:32.226Z,4.70
2019-01-24T11:56:32.232Z,4.80
2019-01-24T11:57:32.210Z,4.20
2019-01-24T11:58:32.191Z,4.00
2019-01-24T11:59:32.190Z,4.00
2019-01-24T12:00:32.173Z,5.40
2019-01-24T12:01:32.174Z,4.60
2019-01-24T12:02:32.147Z,4.50
2019-01-24T12:03:32.185Z,4.60
2019-01-24T12:04:32.128Z,3.90
2019-01-24T12:05:32.125Z,5.40
2019-01-24T12:06:32.125Z,4.50
2019-01-24T12:07:32.095Z,3.90
2019-01-24T12:08:32.088Z,3.80
2019-01-24T12:09:32.072Z,4.80
2019-01-24T12:10:32.061Z,4.10
2019-01-24T12:11:32.074Z,3.80
2019-01-24T12:12:32.043Z,4.30
2019-01-24T12:13:32.034Z,4.00
2019-01-24T12:14:32.016Z,5.30
2019-01-24T12:15:32.010Z,4.00
2019-01-24T12:16:32.029Z,4.70
2019-01-24T12:17:31.992Z,3.90
2019-01-24T12:18:31.971Z,4.50
2019-01-24T12:19:31.968Z,4.10
2019-01-24T12:20:31.951Z,5.30
2019-01-24T12:21:31.938Z,4.70
2019-01-24T12:22:31.950Z,4.30
2019-01-24T12:23:31.923Z,6.10
2019-01-24T12:24:31.905Z,5.80
2019-01-24T12:25:31.894Z,4.40
2019-01-24T12:26:31.890Z,4.00
2019-01-24T12:27:31.894Z,4.00
2019-01-24T12:28:31.990Z,4.10
2019-01-24T12:29:31.859Z,4.20
2019-01-24T12:30:31.840Z,4.10
2019-01-24T12:31:31.831Z,3.90
2019-01-24T12:32:31.833Z,4.40
2019-01-24T12:33:31.807Z,4.20
2019-01-24T12:34:31.797Z,4.50
2019-01-24T12:35:31.787Z,4.10
2019-01-24T12:36:31.774Z,4.50
2019-01-24T12:37:31.782Z,4.70
2019-01-24T12:38:31.753Z,4.10
2019-01-24T12:39:31.741Z,5.00
2019-01-24T12:40:31.735Z,3.80
2019-01-24T12:41:32.209Z,5.00
2019-01-24T12:42:31.721Z,4.10
2019-01-24T12:43:31.915Z,3.50
2019-01-24T12:44:31.685Z,4.00
2019-01-24T12:45:31.692Z,4.10
2019-01-24T12:46:31.661Z,3.60
2019-01-24T12:47:31.667Z,4.60
2019-01-24T12:48:31.652Z,4.40
2019-01-24T12:49:31.629Z,3.90
2019-01-24T12:50:31.622Z,4.30
2019-01-24T12:51:31.607Z,4.40
2019-01-24T12:52:31.615Z,4.60
2019-01-24T12:53:31.595Z,4.10
2019-01-24T12:54:31.586Z,3.70
2019-01-24T12:55:31.564Z,3.90
2019-01-24T12:56:31.549Z,3.90
2019-01-24T12:57:31.554Z,3.80
2019-01-24T12:58:31.533Z,4.70
2019-01-24T12:59:31.515Z,4.00
2019-01-24T13:00:31.513Z,5.00
2019-01-24T13:01:31.512Z,5.40
2019-01-24T13:02:31.495Z,4.90
2019-01-24T13:03:31.469Z,5.20
2019-01-24T13:04:31.465Z,4.40
2019-01-24T13:05:31.445Z,4.40
2019-01-24T13:06:31.437Z,3.70
2019-01-24T13:07:31.456Z,3.60
2019-01-24T13:08:31.415Z,3.80
2019-01-24T13:09:31.415Z,3.90
2019-01-24T13:10:31.391Z,3.60
2019-01-24T13:11:31.381Z,4.90
2019-01-24T13:12:31.412Z,4.60
2019-01-24T13:13:31.358Z,5.20
2019-01-24T13:14:31.351Z,5.10
2019-01-24T13:15:31.352Z,4.30
2019-01-24T13:16:31.327Z,4.90